sensor_id;sensor_type;location;lat;lon;timestamp;pressure;altitude;pressure_sealevel;temperature;humidity
66486;BME280;53303;47.476;8.084;2023-05-19T00:02:10;95567.88;;;20.75;44.01
66486;BME280;53303;47.476;8.084;2023-05-19T00:04:35;95569.66;;;20.78;44.08
66486;BME280;53303;47.476;8.084;2023-05-19T00:07:02;95557.84;;;20.71;43.95
66486;BME280;53303;47.476;8.084;2023-05-19T00:09:28;95558.81;;;20.74;44.16
66486;BME280;53303;47.476;8.084;2023-05-19T00:11:56;95564.59;;;20.76;44.19
66486;BME280;53303;47.476;8.084;2023-05-19T00:14:22;95563.63;;;20.73;44.00
66486;BME280;53303;47.476;8.084;2023-05-19T00:16:48;95577.97;;;20.78;44.07
66486;BME280;53303;47.476;8.084;2023-05-19T00:19:13;95559.09;;;20.70;43.85
66486;BME280;53303;47.476;8.084;2023-05-19T00:21:38;95564.59;;;20.76;44.14
66486;BME280;53303;47.476;8.084;2023-05-19T00:24:05;95555.06;;;20.71;44.07
66486;BME280;53303;47.476;8.084;2023-05-19T00:26:31;95557.06;;;20.77;43.87
66486;BME280;53303;47.476;8.084;2023-05-19T00:28:56;95553.50;;;20.76;43.94
66486;BME280;53303;47.476;8.084;2023-05-19T00:31:22;95556.28;;;20.76;44.08
66486;BME280;53303;47.476;8.084;2023-05-19T00:33:50;95543.94;;;20.77;44.24
66486;BME280;53303;47.476;8.084;2023-05-19T00:36:16;95533.63;;;20.72;44.09
66486;BME280;53303;47.476;8.084;2023-05-19T00:38:41;95543.69;;;20.75;44.16
66486;BME280;53303;47.476;8.084;2023-05-19T00:41:09;95542.41;;;20.76;44.22
66486;BME280;53303;47.476;8.084;2023-05-19T00:43:35;95542.41;;;20.76;44.06
66486;BME280;53303;47.476;8.084;2023-05-19T00:46:01;95527.84;;;20.70;44.24
66486;BME280;53303;47.476;8.084;2023-05-19T00:48:29;95542.41;;;20.76;44.13
66486;BME280;53303;47.476;8.084;2023-05-19T00:50:56;95538.16;;;20.75;44.12
66486;BME280;53303;47.476;8.084;2023-05-19T00:53:26;95537.66;;;20.77;44.15
66486;BME280;53303;47.476;8.084;2023-05-19T00:55:53;95529.59;;;20.67;44.32
66486;BME280;53303;47.476;8.084;2023-05-19T00:58:20;95537.66;;;20.77;44.28
66486;BME280;53303;47.476;8.084;2023-05-19T01:00:48;95539.41;;;20.74;44.09
66486;BME280;53303;47.476;8.084;2023-05-19T01:03:17;95532.09;;;20.77;44.26
66486;BME280;53303;47.476;8.084;2023-05-19T01:05:44;95536.88;;;20.76;44.18
66486;BME280;53303;47.476;8.084;2023-05-19T01:08:10;95529.34;;;20.77;44.14
66486;BME280;53303;47.476;8.084;2023-05-19T01:10:36;95517.00;;;20.66;44.17
66486;BME280;53303;47.476;8.084;2023-05-19T01:13:02;95537.66;;;20.77;44.11
66486;BME280;53303;47.476;8.084;2023-05-19T01:15:29;95527.31;;;20.77;44.20
66486;BME280;53303;47.476;8.084;2023-05-19T01:18:06;95530.59;;;20.76;44.27
66486;BME280;53303;47.476;8.084;2023-05-19T01:20:40;95527.34;;;20.71;44.07
66486;BME280;53303;47.476;8.084;2023-05-19T01:30:47;95516.00;;;20.64;44.07
66486;BME280;53303;47.476;8.084;2023-05-19T01:33:14;95525.78;;;20.76;44.26
66486;BME280;53303;47.476;8.084;2023-05-19T01:35:41;95523.78;;;20.77;44.26
66486;BME280;53303;47.476;8.084;2023-05-19T01:38:11;95517.47;;;20.76;44.20
66486;BME280;53303;47.476;8.084;2023-05-19T01:40:38;95515.47;;;20.77;44.20
66486;BME280;53303;47.476;8.084;2023-05-19T01:43:06;95520.25;;;20.76;44.65
66486;BME280;53303;47.476;8.084;2023-05-19T01:45:33;95508.41;;;20.76;44.32
66486;BME280;53303;47.476;8.084;2023-05-19T01:48:01;95511.91;;;20.76;44.00
66486;BME280;53303;47.476;8.084;2023-05-19T01:50:28;95506.38;;;20.76;44.41
66486;BME280;53303;47.476;8.084;2023-05-19T01:52:56;95508.66;;;20.72;44.24
66486;BME280;53303;47.476;8.084;2023-05-19T01:55:22;95507.66;;;20.75;44.26
66486;BME280;53303;47.476;8.084;2023-05-19T02:00:52;95511.16;;;20.76;44.27
66486;BME280;53303;47.476;8.084;2023-05-19T02:06:04;95515.47;;;20.77;44.15
66486;BME280;53303;47.476;8.084;2023-05-19T02:11:51;95511.91;;;20.76;44.37
66486;BME280;53303;47.476;8.084;2023-05-19T02:14:00;95514.44;;;20.74;44.28
66486;BME280;53303;47.476;8.084;2023-05-19T02:16:27;95514.69;;;20.76;44.31
66486;BME280;53303;47.476;8.084;2023-05-19T02:18:56;95511.16;;;20.76;44.14
66486;BME280;53303;47.476;8.084;2023-05-19T02:21:23;95505.63;;;20.76;44.31
66486;BME280;53303;47.476;8.084;2023-05-19T02:23:51;95500.34;;;20.72;43.96
66486;BME280;53303;47.476;8.084;2023-05-19T02:26:16;95503.13;;;20.72;44.25
66486;BME280;53303;47.476;8.084;2023-05-19T02:28:44;95510.44;;;20.75;44.44
66486;BME280;53303;47.476;8.084;2023-05-19T02:31:09;95509.91;;;20.77;44.25
66486;BME280;53303;47.476;8.084;2023-05-19T02:33:35;95508.44;;;20.70;44.22
66486;BME280;53303;47.476;8.084;2023-05-19T02:36:01;95511.91;;;20.76;44.38
66486;BME280;53303;47.476;8.084;2023-05-19T02:38:27;95513.94;;;20.76;44.26
66486;BME280;53303;47.476;8.084;2023-05-19T02:40:52;95489.28;;;20.55;44.46
66486;BME280;53303;47.476;8.084;2023-05-19T02:43:18;95515.47;;;20.77;44.34
66486;BME280;53303;47.476;8.084;2023-05-19T02:45:44;95509.41;;;20.72;44.36
66486;BME280;53303;47.476;8.084;2023-05-19T02:48:12;95465.63;;;20.48;44.33
66486;BME280;53303;47.476;8.084;2023-05-19T02:50:37;95511.69;;;20.74;44.44
66486;BME280;53303;47.476;8.084;2023-05-19T02:53:03;95504.63;;;20.73;44.32
66486;BME280;53303;47.476;8.084;2023-05-19T02:55:29;95509.66;;;20.75;44.47
66486;BME280;53303;47.476;8.084;2023-05-19T02:57:54;95509.16;;;20.76;44.36
66486;BME280;53303;47.476;8.084;2023-05-19T03:00:20;95498.06;;;20.76;44.44
66486;BME280;53303;47.476;8.084;2023-05-19T03:02:45;95497.81;;;20.74;44.35
66486;BME280;53303;47.476;8.084;2023-05-19T03:05:10;95491.75;;;20.76;44.27
66486;BME280;53303;47.476;8.084;2023-05-19T03:07:36;95504.38;;;20.77;44.22
66486;BME280;53303;47.476;8.084;2023-05-19T03:10:04;95493.28;;;20.77;44.31
66486;BME280;53303;47.476;8.084;2023-05-19T03:12:31;95494.81;;;20.72;44.14
66486;BME280;53303;47.476;8.084;2023-05-19T03:14:57;95496.56;;;20.75;44.44
66486;BME280;53303;47.476;8.084;2023-05-19T03:17:23;95496.06;;;20.77;44.39
66486;BME280;53303;47.476;8.084;2023-05-19T03:19:48;95498.06;;;20.76;44.40
66486;BME280;53303;47.476;8.084;2023-05-19T03:22:15;95496.06;;;20.71;44.33
66486;BME280;53303;47.476;8.084;2023-05-19T03:24:45;95489.50;;;20.74;44.40
66486;BME280;53303;47.476;8.084;2023-05-19T03:27:13;95482.97;;;20.66;44.31
66486;BME280;53303;47.476;8.084;2023-05-19T03:29:38;95486.25;;;20.70;44.38
66486;BME280;53303;47.476;8.084;2023-05-19T03:32:06;95498.06;;;20.76;44.49
66486;BME280;53303;47.476;8.084;2023-05-19T03:34:31;95505.63;;;20.76;44.22
66486;BME280;53303;47.476;8.084;2023-05-19T03:36:57;95502.84;;;20.76;44.34
66486;BME280;53303;47.476;8.084;2023-05-19T03:39:23;95485.22;;;20.67;44.42
66486;BME280;53303;47.476;8.084;2023-05-19T03:41:51;95503.59;;;20.76;44.64
66486;BME280;53303;47.476;8.084;2023-05-19T03:44:18;95477.19;;;20.64;44.38
66486;BME280;53303;47.476;8.084;2023-05-19T03:46:44;95500.09;;;20.76;44.52
66486;BME280;53303;47.476;8.084;2023-05-19T03:49:09;95500.59;;;20.74;44.59
66486;BME280;53303;47.476;8.084;2023-05-19T03:51:35;95503.34;;;20.74;44.52
66486;BME280;53303;47.476;8.084;2023-05-19T03:54:01;95502.09;;;20.75;44.29
66486;BME280;53303;47.476;8.084;2023-05-19T03:56:27;95507.66;;;20.75;44.07
66486;BME280;53303;47.476;8.084;2023-05-19T03:58:52;95509.91;;;20.77;44.11
66486;BME280;53303;47.476;8.084;2023-05-19T04:01:19;95507.91;;;20.77;44.32
66486;BME280;53303;47.476;8.084;2023-05-19T04:03:44;95515.47;;;20.77;44.18
66486;BME280;53303;47.476;8.084;2023-05-19T04:06:10;95510.66;;;20.77;43.96
66486;BME280;53303;47.476;8.084;2023-05-19T04:08:37;95504.63;;;20.73;43.87
66486;BME280;53303;47.476;8.084;2023-05-19T04:11:03;95510.94;;;20.73;43.90
66486;BME280;53303;47.476;8.084;2023-05-19T04:13:31;95514.19;;;20.78;44.15
66486;BME280;53303;47.476;8.084;2023-05-19T04:15:57;95518.25;;;20.77;43.93
66486;BME280;53303;47.476;8.084;2023-05-19T04:18:22;95480.22;;;20.54;44.24
66486;BME280;53303;47.476;8.084;2023-05-19T04:20:48;95511.16;;;20.76;43.94
66486;BME280;53303;47.476;8.084;2023-05-19T04:23:13;95513.19;;;20.75;44.19
66486;BME280;53303;47.476;8.084;2023-05-19T04:25:38;95517.72;;;20.72;44.48
66486;BME280;53303;47.476;8.084;2023-05-19T04:28:05;95509.91;;;20.71;44.11
66486;BME280;53303;47.476;8.084;2023-05-19T04:30:30;95514.69;;;20.76;44.32
66486;BME280;53303;47.476;8.084;2023-05-19T04:32:56;95500.63;;;20.68;44.30
66486;BME280;53303;47.476;8.084;2023-05-19T04:35:22;95498.81;;;20.71;44.33
66486;BME280;53303;47.476;8.084;2023-05-19T04:37:48;95499.59;;;20.71;44.31
66486;BME280;53303;47.476;8.084;2023-05-19T04:40:13;95506.13;;;20.74;44.32
66486;BME280;53303;47.476;8.084;2023-05-19T04:42:39;95508.91;;;20.74;44.35
66486;BME280;53303;47.476;8.084;2023-05-19T04:45:10;95506.88;;;20.75;44.38
66486;BME280;53303;47.476;8.084;2023-05-19T04:47:38;95501.13;;;20.67;44.39
66486;BME280;53303;47.476;8.084;2023-05-19T04:50:04;95502.09;;;20.69;44.50
66486;BME280;53303;47.476;8.084;2023-05-19T04:52:31;95509.66;;;20.75;44.52
66486;BME280;53303;47.476;8.084;2023-05-19T04:54:57;95505.66;;;20.70;44.46
66486;BME280;53303;47.476;8.084;2023-05-19T04:57:22;95514.44;;;20.74;44.51
66486;BME280;53303;47.476;8.084;2023-05-19T04:59:48;95514.97;;;20.72;44.42
66486;BME280;53303;47.476;8.084;2023-05-19T05:02:14;95519.00;;;20.71;44.61
66486;BME280;53303;47.476;8.084;2023-05-19T05:04:39;95523.50;;;20.75;44.33
66486;BME280;53303;47.476;8.084;2023-05-19T05:07:07;95522.03;;;20.73;44.45
66486;BME280;53303;47.476;8.084;2023-05-19T05:09:33;95517.97;;;20.75;44.55
66486;BME280;53303;47.476;8.084;2023-05-19T05:11:59;95511.44;;;20.72;44.94
66486;BME280;53303;47.476;8.084;2023-05-19T05:14:25;95518.75;;;20.75;44.37
66486;BME280;53303;47.476;8.084;2023-05-19T05:16:53;95512.97;;;20.67;44.37
66486;BME280;53303;47.476;8.084;2023-05-19T05:19:24;95515.47;;;20.71;44.43
66486;BME280;53303;47.476;8.084;2023-05-19T05:21:52;95508.94;;;20.68;44.56
66486;BME280;53303;47.476;8.084;2023-05-19T05:24:20;95520.50;;;20.72;44.42
66486;BME280;53303;47.476;8.084;2023-05-19T05:26:48;95515.97;;;20.75;44.54
66486;BME280;53303;47.476;8.084;2023-05-19T05:29:14;95518.75;;;20.75;44.40
66486;BME280;53303;47.476;8.084;2023-05-19T05:31:39;95514.44;;;20.74;44.45
66486;BME280;53303;47.476;8.084;2023-05-19T05:34:05;95516.50;;;20.68;44.29
66486;BME280;53303;47.476;8.084;2023-05-19T05:36:31;95512.44;;;20.75;44.59
66486;BME280;53303;47.476;8.084;2023-05-19T05:38:59;95513.19;;;20.75;44.59
66486;BME280;53303;47.476;8.084;2023-05-19T05:41:27;95513.19;;;20.75;44.50
66486;BME280;53303;47.476;8.084;2023-05-19T05:43:59;95516.47;;;20.73;44.55
66486;BME280;53303;47.476;8.084;2023-05-19T05:46:24;95519.00;;;20.71;44.56
66486;BME280;53303;47.476;8.084;2023-05-19T05:48:52;95529.84;;;20.75;44.74
66486;BME280;53303;47.476;8.084;2023-05-19T05:51:20;95529.84;;;20.75;44.67
66486;BME280;53303;47.476;8.084;2023-05-19T05:53:53;95526.28;;;20.75;44.48
66486;BME280;53303;47.476;8.084;2023-05-19T05:56:20;95529.84;;;20.75;44.50
66486;BME280;53303;47.476;8.084;2023-05-19T05:58:46;95521.53;;;20.75;44.52
66486;BME280;53303;47.476;8.084;2023-05-19T06:01:12;95527.81;;;20.76;44.47
66486;BME280;53303;47.476;8.084;2023-05-19T06:03:41;95526.56;;;20.77;44.57
66486;BME280;53303;47.476;8.084;2023-05-19T06:06:09;95528.56;;;20.76;44.51
66486;BME280;53303;47.476;8.084;2023-05-19T06:08:35;95511.16;;;20.76;44.59
66486;BME280;53303;47.476;8.084;2023-05-19T06:11:01;95513.94;;;20.76;44.60
66486;BME280;53303;47.476;8.084;2023-05-19T06:13:35;95511.91;;;20.76;44.40
66486;BME280;53303;47.476;8.084;2023-05-19T06:16:00;95520.25;;;20.76;44.39
66486;BME280;53303;47.476;8.084;2023-05-19T06:18:28;95519.50;;;20.76;44.09
66486;BME280;53303;47.476;8.084;2023-05-19T06:20:54;95520.75;;;20.75;44.41
66486;BME280;53303;47.476;8.084;2023-05-19T06:23:19;95506.66;;;20.67;44.42
66486;BME280;53303;47.476;8.084;2023-05-19T06:25:45;95518.75;;;20.75;44.58
66486;BME280;53303;47.476;8.084;2023-05-19T06:28:11;95515.72;;;20.73;44.48
66486;BME280;53303;47.476;8.084;2023-05-19T06:30:36;95510.19;;;20.67;44.24
66486;BME280;53303;47.476;8.084;2023-05-19T06:33:02;95523.78;;;20.77;44.41
66486;BME280;53303;47.476;8.084;2023-05-19T06:35:30;95523.53;;;20.80;44.35
66486;BME280;53303;47.476;8.084;2023-05-19T06:37:59;95526.28;;;20.80;44.36
66486;BME280;53303;47.476;8.084;2023-05-19T06:40:25;95527.03;;;20.81;44.45
66486;BME280;53303;47.476;8.084;2023-05-19T06:42:50;95509.41;;;20.72;44.53
66486;BME280;53303;47.476;8.084;2023-05-19T06:45:18;95525.00;;;20.81;44.54
66486;BME280;53303;47.476;8.084;2023-05-19T06:47:49;95526.53;;;20.82;44.44
66486;BME280;53303;47.476;8.084;2023-05-19T06:50:15;95526.03;;;20.78;44.40
66486;BME280;53303;47.476;8.084;2023-05-19T06:52:40;95527.81;;;20.76;44.37
66486;BME280;53303;47.476;8.084;2023-05-19T06:55:06;95534.06;;;20.82;44.53
66486;BME280;53303;47.476;8.084;2023-05-19T06:57:32;95529.31;;;20.82;44.41
66486;BME280;53303;47.476;8.084;2023-05-19T07:00:00;95527.28;;;20.83;44.17
66486;BME280;53303;47.476;8.084;2023-05-19T07:02:28;95529.53;;;20.84;44.46
66486;BME280;53303;47.476;8.084;2023-05-19T07:04:53;95507.91;;;20.71;44.25
66486;BME280;53303;47.476;8.084;2023-05-19T07:07:21;95530.28;;;20.85;44.39
66486;BME280;53303;47.476;8.084;2023-05-19T07:09:47;95521.00;;;20.82;44.31
66486;BME280;53303;47.476;8.084;2023-05-19T07:12:17;95529.78;;;20.86;44.35
66486;BME280;53303;47.476;8.084;2023-05-19T07:14:42;95522.72;;;20.85;44.38
66486;BME280;53303;47.476;8.084;2023-05-19T07:17:07;95518.97;;;20.77;44.40
66486;BME280;53303;47.476;8.084;2023-05-19T07:19:33;95528.53;;;20.87;44.30
66486;BME280;53303;47.476;8.084;2023-05-19T07:21:58;95531.03;;;20.85;44.42
66486;BME280;53303;47.476;8.084;2023-05-19T07:24:24;95518.25;;;20.77;44.69
66486;BME280;53303;47.476;8.084;2023-05-19T07:26:51;95531.81;;;20.86;44.57
66486;BME280;53303;47.476;8.084;2023-05-19T07:29:17;95531.31;;;20.87;44.38
66486;BME280;53303;47.476;8.084;2023-05-19T07:31:42;95526.50;;;20.88;44.52
66486;BME280;53303;47.476;8.084;2023-05-19T07:34:07;95534.09;;;20.87;44.25
66486;BME280;53303;47.476;8.084;2023-05-19T07:36:33;95534.59;;;20.86;44.35
66486;BME280;53303;47.476;8.084;2023-05-19T07:38:58;95534.81;;;20.88;44.56
66486;BME280;53303;47.476;8.084;2023-05-19T07:41:24;95527.25;;;20.88;44.62
66486;BME280;53303;47.476;8.084;2023-05-19T07:43:50;95521.72;;;20.88;44.43
66486;BME280;53303;47.476;8.084;2023-05-19T07:46:15;95522.44;;;20.89;44.58
66486;BME280;53303;47.476;8.084;2023-05-19T07:48:41;95517.72;;;20.84;44.39
66486;BME280;53303;47.476;8.084;2023-05-19T07:51:09;95512.16;;;20.78;44.39
66486;BME280;53303;47.476;8.084;2023-05-19T07:53:35;95512.88;;;20.90;44.34
66486;BME280;53303;47.476;8.084;2023-05-19T07:56:04;95524.72;;;20.90;44.39
66486;BME280;53303;47.476;8.084;2023-05-19T07:58:29;95526.25;;;20.91;44.43
66486;BME280;53303;47.476;8.084;2023-05-19T08:01:01;95513.16;;;20.86;44.45
66486;BME280;53303;47.476;8.084;2023-05-19T08:03:27;95514.13;;;20.89;44.45
66486;BME280;53303;47.476;8.084;2023-05-19T08:05:54;95498.56;;;20.80;44.32
66486;BME280;53303;47.476;8.084;2023-05-19T08:08:19;95509.88;;;20.88;44.39
66486;BME280;53303;47.476;8.084;2023-05-19T08:10:48;95510.09;;;20.90;44.49
66486;BME280;53303;47.476;8.084;2023-05-19T08:13:13;95517.91;;;20.91;44.43
66486;BME280;53303;47.476;8.084;2023-05-19T08:15:39;95512.38;;;20.91;44.44
66486;BME280;53303;47.476;8.084;2023-05-19T08:18:05;95514.63;;;20.93;44.50
66486;BME280;53303;47.476;8.084;2023-05-19T08:20:32;95514.63;;;20.93;44.63
66486;BME280;53303;47.476;8.084;2023-05-19T08:23:00;95503.81;;;20.89;44.50
66486;BME280;53303;47.476;8.084;2023-05-19T08:25:26;95511.09;;;20.92;44.19
66486;BME280;53303;47.476;8.084;2023-05-19T08:27:54;95504.28;;;20.94;43.68
66486;BME280;53303;47.476;8.084;2023-05-19T08:30:19;95505.81;;;20.95;44.11
66486;BME280;53303;47.476;8.084;2023-05-19T08:32:45;95491.13;;;21.05;44.35
66486;BME280;53303;47.476;8.084;2023-05-19T08:35:11;95480.78;;;21.06;44.54
66486;BME280;53303;47.476;8.084;2023-05-19T08:37:36;95498.88;;;21.18;44.56
66486;BME280;53303;47.476;8.084;2023-05-19T08:40:05;95443.34;;;20.82;44.55
66486;BME280;53303;47.476;8.084;2023-05-19T08:42:32;95488.56;;;21.13;44.51
66486;BME280;53303;47.476;8.084;2023-05-19T08:45:01;95487.81;;;21.13;44.56
66486;BME280;53303;47.476;8.084;2023-05-19T08:47:30;95475.50;;;21.02;44.46
66486;BME280;53303;47.476;8.084;2023-05-19T08:50:03;95484.78;;;21.10;44.32
66486;BME280;53303;47.476;8.084;2023-05-19T08:52:39;95482.53;;;21.09;44.41
66486;BME280;53303;47.476;8.084;2023-05-19T08:55:16;95481.00;;;21.08;44.58
66486;BME280;53303;47.476;8.084;2023-05-19T08:57:47;95468.22;;;20.94;44.56
66486;BME280;53303;47.476;8.084;2023-05-19T09:00:14;95471.72;;;21.00;44.62
66486;BME280;53303;47.476;8.084;2023-05-19T09:02:41;95491.38;;;21.07;44.53
66486;BME280;53303;47.476;8.084;2023-05-19T09:05:07;95492.84;;;21.08;44.41
66486;BME280;53303;47.476;8.084;2023-05-19T09:07:34;95491.88;;;21.06;44.61
66486;BME280;53303;47.476;8.084;2023-05-19T09:10:00;95489.34;;;21.08;44.47
66486;BME280;53303;47.476;8.084;2023-05-19T09:12:26;95488.59;;;21.07;44.47
66486;BME280;53303;47.476;8.084;2023-05-19T09:14:52;95487.06;;;21.06;44.69
66486;BME280;53303;47.476;8.084;2023-05-19T09:17:17;95484.28;;;21.06;44.48
66486;BME280;53303;47.476;8.084;2023-05-19T09:19:46;95471.72;;;21.00;44.64
66486;BME280;53303;47.476;8.084;2023-05-19T09:22:15;95484.06;;;21.04;44.62
66486;BME280;53303;47.476;8.084;2023-05-19T09:24:43;95479.28;;;20.99;44.60
66486;BME280;53303;47.476;8.084;2023-05-19T09:27:13;95481.81;;;20.97;44.64
66486;BME280;53303;47.476;8.084;2023-05-19T09:29:39;95470.75;;;20.91;44.62
66486;BME280;53303;47.476;8.084;2023-05-19T09:32:06;95481.81;;;20.97;44.78
66486;BME280;53303;47.476;8.084;2023-05-19T09:34:32;95463.25;;;20.81;44.64
66486;BME280;53303;47.476;8.084;2023-05-19T09:37:00;95481.31;;;20.99;44.72
66486;BME280;53303;47.476;8.084;2023-05-19T09:39:25;95482.31;;;21.01;44.65
66486;BME280;53303;47.476;8.084;2023-05-19T09:41:53;95480.56;;;20.98;44.79
66486;BME280;53303;47.476;8.084;2023-05-19T09:46:49;95485.06;;;21.07;45.22
66486;BME280;53303;47.476;8.084;2023-05-19T09:49:22;95472.69;;;21.08;45.75
66486;BME280;53303;47.476;8.084;2023-05-19T09:51:58;95475.97;;;21.06;46.25
66486;BME280;53303;47.476;8.084;2023-05-19T09:54:26;95474.72;;;21.07;46.45
66486;BME280;53303;47.476;8.084;2023-05-19T09:57:00;95475.47;;;21.08;46.55
66486;BME280;53303;47.476;8.084;2023-05-19T09:59:27;95453.88;;;20.89;46.74
66486;BME280;53303;47.476;8.084;2023-05-19T10:02:00;95479.75;;;21.09;46.52
66486;BME280;53303;47.476;8.084;2023-05-19T10:04:28;95467.13;;;21.08;46.66
66486;BME280;53303;47.476;8.084;2023-05-19T10:06:55;95469.41;;;21.09;46.57
66486;BME280;53303;47.476;8.084;2023-05-19T10:09:24;95466.63;;;21.09;46.42
66486;BME280;53303;47.476;8.084;2023-05-19T10:11:51;95474.97;;;21.09;46.51
66486;BME280;53303;47.476;8.084;2023-05-19T10:14:27;95467.66;;;21.06;46.55
66486;BME280;53303;47.476;8.084;2023-05-19T10:16:55;95478.25;;;21.08;46.53
66486;BME280;53303;47.476;8.084;2023-05-19T10:19:22;95458.91;;;20.97;46.29
66486;BME280;53303;47.476;8.084;2023-05-19T10:21:49;95474.72;;;21.07;46.41
66486;BME280;53303;47.476;8.084;2023-05-19T10:24:18;95472.19;;;21.09;46.13
66486;BME280;53303;47.476;8.084;2023-05-19T10:27:00;95466.41;;;21.07;46.16
66486;BME280;53303;47.476;8.084;2023-05-19T10:29:30;95463.13;;;21.09;45.94
66486;BME280;53303;47.476;8.084;2023-05-19T10:32:00;95469.41;;;21.09;45.96
66486;BME280;53303;47.476;8.084;2023-05-19T10:37:44;95462.88;;;21.07;46.15
66486;BME280;53303;47.476;8.084;2023-05-19T10:40:32;95470.66;;;21.08;46.14
66486;BME280;53303;47.476;8.084;2023-05-19T10:43:14;95474.97;;;21.09;46.05
66486;BME280;53303;47.476;8.084;2023-05-19T10:45:56;95463.91;;;21.04;45.95
66486;BME280;53303;47.476;8.084;2023-05-19T10:48:21;95462.59;;;21.10;45.88
66486;BME280;53303;47.476;8.084;2023-05-19T10:50:48;95455.84;;;21.00;45.91
66486;BME280;53303;47.476;8.084;2023-05-19T10:53:16;95466.13;;;21.11;45.87
66486;BME280;53303;47.476;8.084;2023-05-19T10:55:52;95463.34;;;21.11;45.80
66486;BME280;53303;47.476;8.084;2023-05-19T11:06:26;95441.75;;;20.98;45.75
66486;BME280;53303;47.476;8.084;2023-05-19T11:09:15;95457.56;;;21.09;45.79
66486;BME280;53303;47.476;8.084;2023-05-19T11:11:52;95455.53;;;21.09;45.59
66486;BME280;53303;47.476;8.084;2023-05-19T11:14:27;95455.78;;;21.11;45.60
66486;BME280;53303;47.476;8.084;2023-05-19T11:16:58;95453.75;;;21.12;45.81
66486;BME280;53303;47.476;8.084;2023-05-19T11:19:34;95453.00;;;21.11;45.63
66486;BME280;53303;47.476;8.084;2023-05-19T11:22:12;95448.72;;;21.10;45.75
66486;BME280;53303;47.476;8.084;2023-05-19T11:24:47;95427.09;;;20.98;45.70
66486;BME280;53303;47.476;8.084;2023-05-19T11:30:08;95440.88;;;21.15;45.70
66486;BME280;53303;47.476;8.084;2023-05-19T11:32:38;95449.94;;;21.15;45.72
66486;BME280;53303;47.476;8.084;2023-05-19T11:35:07;95445.97;;;21.10;45.79
66486;BME280;53303;47.476;8.084;2023-05-19T11:37:33;95442.41;;;21.10;45.76
66486;BME280;53303;47.476;8.084;2023-05-19T11:40:05;95450.41;;;21.19;45.57
66486;BME280;53303;47.476;8.084;2023-05-19T11:42:34;95438.56;;;21.19;45.80
66486;BME280;53303;47.476;8.084;2023-05-19T11:45:00;95430.47;;;21.21;45.66
66486;BME280;53303;47.476;8.084;2023-05-19T11:47:26;95441.06;;;21.22;45.55
66486;BME280;53303;47.476;8.084;2023-05-19T11:49:53;95433.56;;;21.11;45.55
66486;BME280;53303;47.476;8.084;2023-05-19T11:52:24;95433.03;;;21.19;45.44
66486;BME280;53303;47.476;8.084;2023-05-19T11:54:52;95442.09;;;21.19;45.50
66486;BME280;53303;47.476;8.084;2023-05-19T11:57:18;95429.50;;;21.18;45.58
66486;BME280;53303;47.476;8.084;2023-05-19T11:59:43;95439.03;;;21.23;45.66
66486;BME280;53303;47.476;8.084;2023-05-19T12:02:17;95437.28;;;21.25;45.34
66486;BME280;53303;47.476;8.084;2023-05-19T12:04:43;95437.78;;;21.24;45.60
66486;BME280;53303;47.476;8.084;2023-05-19T12:07:10;95436.25;;;21.23;45.47
66486;BME280;53303;47.476;8.084;2023-05-19T12:09:36;95441.81;;;21.28;45.53
66486;BME280;53303;47.476;8.084;2023-05-19T12:12:02;95433.22;;;21.26;45.69
66486;BME280;53303;47.476;8.084;2023-05-19T12:14:29;95430.94;;;21.30;45.42
66486;BME280;53303;47.476;8.084;2023-05-19T12:16:55;95426.16;;;21.25;45.46
66486;BME280;53303;47.476;8.084;2023-05-19T12:19:24;95423.41;;;21.25;45.44
66486;BME280;53303;47.476;8.084;2023-05-19T12:21:51;95420.84;;;21.27;45.27
66486;BME280;53303;47.476;8.084;2023-05-19T12:24:19;95429.13;;;21.33;45.28
66486;BME280;53303;47.476;8.084;2023-05-19T12:26:45;95422.59;;;21.30;45.48
66486;BME280;53303;47.476;8.084;2023-05-19T12:29:12;95427.09;;;21.34;45.61
66486;BME280;53303;47.476;8.084;2023-05-19T12:31:37;95421.31;;;21.32;45.31
66486;BME280;53303;47.476;8.084;2023-05-19T12:34:03;95414.28;;;21.30;45.42
66486;BME280;53303;47.476;8.084;2023-05-19T12:36:30;95423.34;;;21.31;45.43
66486;BME280;53303;47.476;8.084;2023-05-19T12:38:58;95423.81;;;21.35;45.48
66486;BME280;53303;47.476;8.084;2023-05-19T12:41:24;95419.03;;;21.36;45.36
66486;BME280;53303;47.476;8.084;2023-05-19T12:43:52;95418.53;;;21.37;45.50
66486;BME280;53303;47.476;8.084;2023-05-19T12:46:18;95397.41;;;21.28;45.51
66486;BME280;53303;47.476;8.084;2023-05-19T12:48:45;95406.41;;;21.35;45.37
66486;BME280;53303;47.476;8.084;2023-05-19T12:51:20;95417.75;;;21.37;45.42
66486;BME280;53303;47.476;8.084;2023-05-19T12:53:46;95412.97;;;21.37;45.65
66486;BME280;53303;47.476;8.084;2023-05-19T12:56:14;95413.00;;;21.32;45.51
66486;BME280;53303;47.476;8.084;2023-05-19T12:58:41;95408.22;;;21.32;45.61
66486;BME280;53303;47.476;8.084;2023-05-19T13:01:18;95417.00;;;21.36;45.49
66486;BME280;53303;47.476;8.084;2023-05-19T13:03:44;95400.63;;;21.33;45.47
66486;BME280;53303;47.476;8.084;2023-05-19T13:06:10;95399.91;;;21.32;45.42
66486;BME280;53303;47.476;8.084;2023-05-19T13:08:36;95413.94;;;21.40;45.45
66486;BME280;53303;47.476;8.084;2023-05-19T13:11:04;95405.63;;;21.40;45.64
66486;BME280;53303;47.476;8.084;2023-05-19T13:13:30;95405.16;;;21.36;45.61
66486;BME280;53303;47.476;8.084;2023-05-19T13:15:55;95401.09;;;21.37;45.52
66486;BME280;53303;47.476;8.084;2023-05-19T13:18:21;95394.06;;;21.36;45.41
66486;BME280;53303;47.476;8.084;2023-05-19T13:20:46;95396.78;;;21.41;45.62
66486;BME280;53303;47.476;8.084;2023-05-19T13:23:14;95399.56;;;21.41;45.47
66486;BME280;53303;47.476;8.084;2023-05-19T13:25:40;95396.03;;;21.41;45.27
66486;BME280;53303;47.476;8.084;2023-05-19T13:28:06;95404.38;;;21.41;45.36
66486;BME280;53303;47.476;8.084;2023-05-19T13:30:36;95402.84;;;21.40;45.58
66486;BME280;53303;47.476;8.084;2023-05-19T13:33:02;95395.03;;;21.38;45.50
66486;BME280;53303;47.476;8.084;2023-05-19T13:35:28;95390.34;;;21.27;45.45